sensor_id;sensor_type;location;lat;lon;timestamp;P1;durP1;ratioP1;P2;durP2;ratioP2
65045;SDS011;54657;52.022;5.534;2023-06-24T00:02:12;5.20;;;4.70;;
65045;SDS011;54657;52.022;5.534;2023-06-24T00:04:37;7.38;;;4.82;;
65045;SDS011;54657;52.022;5.534;2023-06-24T00:07:03;6.15;;;4.43;;
65045;SDS011;54657;52.022;5.534;2023-06-24T00:09:29;6.90;;;4.60;;
65045;SDS011;54657;52.022;5.534;2023-06-24T00:11:58;4.88;;;4.28;;
65045;SDS011;54657;52.022;5.534;2023-06-24T00:14:24;4.90;;;4.40;;
65045;SDS011;54657;52.022;5.534;2023-06-24T00:16:51;5.00;;;4.50;;
65045;SDS011;54657;52.022;5.534;2023-06-24T00:19:19;6.45;;;4.07;;
65045;SDS011;54657;52.022;5.534;2023-06-24T00:21:45;5.85;;;4.70;;
65045;SDS011;54657;52.022;5.534;2023-06-24T00:24:16;5.13;;;4.63;;
65045;SDS011;54657;52.022;5.534;2023-06-24T00:26:42;9.27;;;4.68;;
65045;SDS011;54657;52.022;5.534;2023-06-24T00:29:08;6.60;;;4.57;;
65045;SDS011;54657;52.022;5.534;2023-06-24T00:31:34;5.28;;;4.70;;
65045;SDS011;54657;52.022;5.534;2023-06-24T00:33:59;4.72;;;4.25;;
65045;SDS011;54657;52.022;5.534;2023-06-24T00:36:25;4.90;;;4.50;;
65045;SDS011;54657;52.022;5.534;2023-06-24T00:38:51;6.78;;;4.80;;
65045;SDS011;54657;52.022;5.534;2023-06-24T00:41:17;6.50;;;4.85;;
65045;SDS011;54657;52.022;5.534;2023-06-24T00:43:43;6.50;;;4.68;;
65045;SDS011;54657;52.022;5.534;2023-06-24T00:46:10;5.03;;;4.53;;
65045;SDS011;54657;52.022;5.534;2023-06-24T00:48:36;5.47;;;4.97;;
65045;SDS011;54657;52.022;5.534;2023-06-24T00:51:01;7.85;;;5.22;;
65045;SDS011;54657;52.022;5.534;2023-06-24T00:53:27;5.85;;;5.25;;
65045;SDS011;54657;52.022;5.534;2023-06-24T00:55:54;5.60;;;5.10;;
65045;SDS011;54657;52.022;5.534;2023-06-24T00:58:21;7.80;;;5.22;;
65045;SDS011;54657;52.022;5.534;2023-06-24T01:00:47;8.43;;;5.50;;
65045;SDS011;54657;52.022;5.534;2023-06-24T01:03:22;5.63;;;5.07;;
65045;SDS011;54657;52.022;5.534;2023-06-24T01:05:51;6.40;;;5.60;;
65045;SDS011;54657;52.022;5.534;2023-06-24T01:08:18;6.72;;;5.68;;
65045;SDS011;54657;52.022;5.534;2023-06-24T01:10:44;5.72;;;5.20;;
65045;SDS011;54657;52.022;5.534;2023-06-24T01:13:10;6.22;;;5.38;;
65045;SDS011;54657;52.022;5.534;2023-06-24T01:15:35;6.03;;;5.43;;
65045;SDS011;54657;52.022;5.534;2023-06-24T01:21:02;7.43;;;5.68;;
65045;SDS011;54657;52.022;5.534;2023-06-24T01:34:53;6.32;;;5.40;;
65045;SDS011;54657;52.022;5.534;2023-06-24T01:37:28;9.10;;;5.70;;
65045;SDS011;54657;52.022;5.534;2023-06-24T01:40:12;6.18;;;5.68;;
65045;SDS011;54657;52.022;5.534;2023-06-24T01:45:09;6.72;;;5.53;;
65045;SDS011;54657;52.022;5.534;2023-06-24T01:47:38;6.70;;;5.68;;
65045;SDS011;54657;52.022;5.534;2023-06-24T01:50:08;5.88;;;5.15;;
65045;SDS011;54657;52.022;5.534;2023-06-24T01:52:37;6.97;;;5.60;;
65045;SDS011;54657;52.022;5.534;2023-06-24T01:55:09;5.80;;;5.30;;
65045;SDS011;54657;52.022;5.534;2023-06-24T01:57:36;8.68;;;5.82;;
65045;SDS011;54657;52.022;5.534;2023-06-24T02:00:04;6.28;;;5.68;;
65045;SDS011;54657;52.022;5.534;2023-06-24T02:02:31;6.28;;;5.78;;
65045;SDS011;54657;52.022;5.534;2023-06-24T02:04:58;6.32;;;5.80;;
65045;SDS011;54657;52.022;5.534;2023-06-24T02:07:26;6.88;;;6.18;;
65045;SDS011;54657;52.022;5.534;2023-06-24T02:09:54;6.82;;;6.20;;
65045;SDS011;54657;52.022;5.534;2023-06-24T02:12:22;6.40;;;5.78;;
65045;SDS011;54657;52.022;5.534;2023-06-24T02:14:49;6.47;;;5.78;;
65045;SDS011;54657;52.022;5.534;2023-06-24T02:17:16;6.22;;;5.55;;
65045;SDS011;54657;52.022;5.534;2023-06-24T02:19:44;7.32;;;5.78;;
65045;SDS011;54657;52.022;5.534;2023-06-24T02:22:10;6.13;;;5.63;;
65045;SDS011;54657;52.022;5.534;2023-06-24T02:24:37;7.10;;;6.00;;
65045;SDS011;54657;52.022;5.534;2023-06-24T02:27:03;10.00;;;7.35;;
65045;SDS011;54657;52.022;5.534;2023-06-24T02:29:30;7.82;;;6.47;;
65045;SDS011;54657;52.022;5.534;2023-06-24T02:31:58;6.63;;;6.03;;
65045;SDS011;54657;52.022;5.534;2023-06-24T02:34:23;8.45;;;6.22;;
65045;SDS011;54657;52.022;5.534;2023-06-24T02:36:49;8.57;;;6.72;;
65045;SDS011;54657;52.022;5.534;2023-06-24T02:39:15;9.43;;;7.43;;
65045;SDS011;54657;52.022;5.534;2023-06-24T02:41:41;9.60;;;7.63;;
65045;SDS011;54657;52.022;5.534;2023-06-24T02:44:07;9.60;;;7.75;;
65045;SDS011;54657;52.022;5.534;2023-06-24T02:46:33;8.07;;;7.05;;
65045;SDS011;54657;52.022;5.534;2023-06-24T02:49:01;9.55;;;7.10;;
65045;SDS011;54657;52.022;5.534;2023-06-24T02:51:27;7.45;;;6.72;;
65045;SDS011;54657;52.022;5.534;2023-06-24T02:53:53;7.40;;;6.38;;
65045;SDS011;54657;52.022;5.534;2023-06-24T02:56:20;7.95;;;6.57;;
65045;SDS011;54657;52.022;5.534;2023-06-24T02:58:47;8.48;;;6.82;;
65045;SDS011;54657;52.022;5.534;2023-06-24T03:01:13;9.55;;;6.70;;
65045;SDS011;54657;52.022;5.534;2023-06-24T03:03:40;7.72;;;7.00;;
65045;SDS011;54657;52.022;5.534;2023-06-24T03:06:07;8.05;;;7.10;;
65045;SDS011;54657;52.022;5.534;2023-06-24T03:08:37;8.02;;;7.22;;
65045;SDS011;54657;52.022;5.534;2023-06-24T03:11:04;8.35;;;7.35;;
65045;SDS011;54657;52.022;5.534;2023-06-24T03:13:29;8.43;;;7.55;;
65045;SDS011;54657;52.022;5.534;2023-06-24T03:15:55;8.52;;;7.45;;
65045;SDS011;54657;52.022;5.534;2023-06-24T03:18:21;8.52;;;7.72;;
65045;SDS011;54657;52.022;5.534;2023-06-24T03:20:46;7.82;;;7.10;;
65045;SDS011;54657;52.022;5.534;2023-06-24T03:23:12;8.18;;;7.35;;
65045;SDS011;54657;52.022;5.534;2023-06-24T03:25:37;11.07;;;7.47;;
65045;SDS011;54657;52.022;5.534;2023-06-24T03:28:03;8.50;;;7.10;;
65045;SDS011;54657;52.022;5.534;2023-06-24T03:30:32;7.82;;;7.13;;
65045;SDS011;54657;52.022;5.534;2023-06-24T03:32:58;9.75;;;7.38;;
65045;SDS011;54657;52.022;5.534;2023-06-24T03:35:23;8.45;;;7.18;;
65045;SDS011;54657;52.022;5.534;2023-06-24T03:37:49;8.00;;;7.18;;
65045;SDS011;54657;52.022;5.534;2023-06-24T03:40:15;8.55;;;6.93;;
65045;SDS011;54657;52.022;5.534;2023-06-24T03:42:40;6.88;;;6.28;;
65045;SDS011;54657;52.022;5.534;2023-06-24T03:45:06;8.88;;;6.40;;
65045;SDS011;54657;52.022;5.534;2023-06-24T03:47:32;7.60;;;6.80;;
65045;SDS011;54657;52.022;5.534;2023-06-24T03:49:58;7.60;;;6.40;;
65045;SDS011;54657;52.022;5.534;2023-06-24T03:52:23;8.70;;;6.90;;
65045;SDS011;54657;52.022;5.534;2023-06-24T03:54:50;9.98;;;6.60;;
65045;SDS011;54657;52.022;5.534;2023-06-24T03:57:15;8.10;;;7.30;;
65045;SDS011;54657;52.022;5.534;2023-06-24T03:59:41;7.22;;;6.50;;
65045;SDS011;54657;52.022;5.534;2023-06-24T04:02:07;7.38;;;6.22;;
65045;SDS011;54657;52.022;5.534;2023-06-24T04:04:33;7.25;;;6.28;;
65045;SDS011;54657;52.022;5.534;2023-06-24T04:07:02;6.40;;;5.80;;
65045;SDS011;54657;52.022;5.534;2023-06-24T04:09:32;6.60;;;6.00;;
65045;SDS011;54657;52.022;5.534;2023-06-24T04:11:59;7.30;;;6.40;;
65045;SDS011;54657;52.022;5.534;2023-06-24T04:14:24;7.38;;;6.38;;
65045;SDS011;54657;52.022;5.534;2023-06-24T04:16:50;6.97;;;6.28;;
65045;SDS011;54657;52.022;5.534;2023-06-24T04:19:15;7.65;;;6.72;;
65045;SDS011;54657;52.022;5.534;2023-06-24T04:21:41;7.82;;;5.63;;
65045;SDS011;54657;52.022;5.534;2023-06-24T04:24:07;6.78;;;5.82;;
65045;SDS011;54657;52.022;5.534;2023-06-24T04:26:32;6.72;;;5.97;;
65045;SDS011;54657;52.022;5.534;2023-06-24T04:28:58;6.35;;;5.63;;
65045;SDS011;54657;52.022;5.534;2023-06-24T04:31:24;6.78;;;5.47;;
65045;SDS011;54657;52.022;5.534;2023-06-24T04:33:50;7.28;;;5.80;;
65045;SDS011;54657;52.022;5.534;2023-06-24T04:36:16;6.78;;;5.00;;
65045;SDS011;54657;52.022;5.534;2023-06-24T04:38:41;6.55;;;5.82;;
65045;SDS011;54657;52.022;5.534;2023-06-24T04:41:10;6.13;;;5.00;;
65045;SDS011;54657;52.022;5.534;2023-06-24T04:43:36;5.60;;;4.97;;
65045;SDS011;54657;52.022;5.534;2023-06-24T04:46:01;5.30;;;4.63;;
65045;SDS011;54657;52.022;5.534;2023-06-24T04:48:27;5.05;;;4.63;;
65045;SDS011;54657;52.022;5.534;2023-06-24T04:50:53;5.72;;;5.00;;
65045;SDS011;54657;52.022;5.534;2023-06-24T04:53:20;7.20;;;4.90;;
65045;SDS011;54657;52.022;5.534;2023-06-24T04:55:48;4.60;;;4.20;;
65045;SDS011;54657;52.022;5.534;2023-06-24T04:58:14;7.22;;;4.60;;
65045;SDS011;54657;52.022;5.534;2023-06-24T05:00:40;4.57;;;4.15;;
65045;SDS011;54657;52.022;5.534;2023-06-24T05:03:05;8.95;;;4.50;;
65045;SDS011;54657;52.022;5.534;2023-06-24T05:05:31;4.45;;;3.78;;
65045;SDS011;54657;52.022;5.534;2023-06-24T05:07:56;4.80;;;3.83;;
65045;SDS011;54657;52.022;5.534;2023-06-24T05:10:22;5.10;;;4.50;;
65045;SDS011;54657;52.022;5.534;2023-06-24T05:12:48;3.80;;;3.40;;
65045;SDS011;54657;52.022;5.534;2023-06-24T05:15:13;3.70;;;3.38;;
65045;SDS011;54657;52.022;5.534;2023-06-24T05:17:39;3.72;;;3.35;;
65045;SDS011;54657;52.022;5.534;2023-06-24T05:20:05;5.40;;;4.00;;
65045;SDS011;54657;52.022;5.534;2023-06-24T05:22:31;6.25;;;4.00;;
65045;SDS011;54657;52.022;5.534;2023-06-24T05:24:56;3.67;;;3.38;;
65045;SDS011;54657;52.022;5.534;2023-06-24T05:27:22;4.10;;;3.67;;
65045;SDS011;54657;52.022;5.534;2023-06-24T05:29:48;3.97;;;3.50;;
65045;SDS011;54657;52.022;5.534;2023-06-24T05:32:13;6.18;;;3.47;;
65045;SDS011;54657;52.022;5.534;2023-06-24T05:34:39;3.67;;;3.30;;
65045;SDS011;54657;52.022;5.534;2023-06-24T05:37:04;5.93;;;4.00;;
65045;SDS011;54657;52.022;5.534;2023-06-24T05:39:30;5.57;;;4.38;;
65045;SDS011;54657;52.022;5.534;2023-06-24T05:41:56;4.78;;;4.20;;
65045;SDS011;54657;52.022;5.534;2023-06-24T05:44:22;6.05;;;4.60;;
65045;SDS011;54657;52.022;5.534;2023-06-24T05:46:48;5.78;;;5.18;;
65045;SDS011;54657;52.022;5.534;2023-06-24T05:49:13;7.13;;;5.07;;
65045;SDS011;54657;52.022;5.534;2023-06-24T05:51:39;7.57;;;5.13;;
65045;SDS011;54657;52.022;5.534;2023-06-24T05:54:05;5.85;;;5.07;;
65045;SDS011;54657;52.022;5.534;2023-06-24T05:56:32;6.78;;;5.68;;
65045;SDS011;54657;52.022;5.534;2023-06-24T05:58:58;6.30;;;5.55;;
65045;SDS011;54657;52.022;5.534;2023-06-24T06:01:23;7.85;;;5.63;;
65045;SDS011;54657;52.022;5.534;2023-06-24T06:03:49;6.82;;;5.45;;
65045;SDS011;54657;52.022;5.534;2023-06-24T06:06:15;7.93;;;5.97;;
65045;SDS011;54657;52.022;5.534;2023-06-24T06:08:40;6.75;;;5.50;;
65045;SDS011;54657;52.022;5.534;2023-06-24T06:11:06;8.93;;;6.05;;
65045;SDS011;54657;52.022;5.534;2023-06-24T06:13:31;7.68;;;5.72;;
65045;SDS011;54657;52.022;5.534;2023-06-24T06:15:58;8.30;;;5.07;;
65045;SDS011;54657;52.022;5.534;2023-06-24T06:18:23;8.70;;;5.57;;
65045;SDS011;54657;52.022;5.534;2023-06-24T06:20:49;10.10;;;5.45;;
65045;SDS011;54657;52.022;5.534;2023-06-24T06:23:15;6.55;;;5.50;;
65045;SDS011;54657;52.022;5.534;2023-06-24T06:25:41;7.35;;;5.60;;
65045;SDS011;54657;52.022;5.534;2023-06-24T06:28:06;7.50;;;5.10;;
65045;SDS011;54657;52.022;5.534;2023-06-24T06:30:32;6.38;;;5.53;;
65045;SDS011;54657;52.022;5.534;2023-06-24T06:32:58;5.43;;;4.93;;
65045;SDS011;54657;52.022;5.534;2023-06-24T06:35:23;6.10;;;4.93;;
65045;SDS011;54657;52.022;5.534;2023-06-24T06:37:49;7.10;;;4.65;;
65045;SDS011;54657;52.022;5.534;2023-06-24T06:40:18;5.15;;;4.65;;
65045;SDS011;54657;52.022;5.534;2023-06-24T06:42:45;6.15;;;4.43;;
65045;SDS011;54657;52.022;5.534;2023-06-24T06:45:10;8.50;;;5.05;;
65045;SDS011;54657;52.022;5.534;2023-06-24T06:47:36;5.75;;;4.43;;
65045;SDS011;54657;52.022;5.534;2023-06-24T06:50:02;9.05;;;4.93;;
65045;SDS011;54657;52.022;5.534;2023-06-24T06:52:28;5.30;;;4.80;;
65045;SDS011;54657;52.022;5.534;2023-06-24T06:54:53;5.13;;;4.22;;
65045;SDS011;54657;52.022;5.534;2023-06-24T06:57:19;5.43;;;4.45;;
65045;SDS011;54657;52.022;5.534;2023-06-24T06:59:45;5.07;;;4.30;;
65045;SDS011;54657;52.022;5.534;2023-06-24T07:02:11;5.50;;;4.60;;
65045;SDS011;54657;52.022;5.534;2023-06-24T07:04:36;5.00;;;4.50;;
65045;SDS011;54657;52.022;5.534;2023-06-24T07:07:02;5.03;;;4.35;;
65045;SDS011;54657;52.022;5.534;2023-06-24T07:09:27;4.30;;;3.90;;
65045;SDS011;54657;52.022;5.534;2023-06-24T07:11:53;5.55;;;4.20;;
65045;SDS011;54657;52.022;5.534;2023-06-24T07:14:19;6.57;;;4.22;;
65045;SDS011;54657;52.022;5.534;2023-06-24T07:16:44;4.53;;;3.95;;
65045;SDS011;54657;52.022;5.534;2023-06-24T07:19:10;5.47;;;3.95;;
65045;SDS011;54657;52.022;5.534;2023-06-24T07:21:35;4.70;;;3.60;;
65045;SDS011;54657;52.022;5.534;2023-06-24T07:24:02;6.28;;;4.38;;
65045;SDS011;54657;52.022;5.534;2023-06-24T07:26:27;4.18;;;3.55;;
65045;SDS011;54657;52.022;5.534;2023-06-24T07:28:56;4.10;;;3.70;;
65045;SDS011;54657;52.022;5.534;2023-06-24T07:31:23;4.38;;;3.83;;
65045;SDS011;54657;52.022;5.534;2023-06-24T07:33:49;4.63;;;3.72;;
65045;SDS011;54657;52.022;5.534;2023-06-24T07:36:14;3.92;;;3.55;;
65045;SDS011;54657;52.022;5.534;2023-06-24T07:38:40;4.20;;;3.70;;
65045;SDS011;54657;52.022;5.534;2023-06-24T07:41:05;4.97;;;4.20;;
65045;SDS011;54657;52.022;5.534;2023-06-24T07:43:31;4.70;;;4.07;;
65045;SDS011;54657;52.022;5.534;2023-06-24T07:45:57;5.18;;;4.68;;
65045;SDS011;54657;52.022;5.534;2023-06-24T07:48:22;5.13;;;4.15;;
65045;SDS011;54657;52.022;5.534;2023-06-24T07:50:48;4.90;;;4.40;;
65045;SDS011;54657;52.022;5.534;2023-06-24T07:53:14;4.30;;;3.53;;
65045;SDS011;54657;52.022;5.534;2023-06-24T07:55:39;4.20;;;3.80;;
65045;SDS011;54657;52.022;5.534;2023-06-24T07:58:06;3.85;;;3.25;;
65045;SDS011;54657;52.022;5.534;2023-06-24T08:00:31;3.75;;;3.35;;
65045;SDS011;54657;52.022;5.534;2023-06-24T08:02:58;3.47;;;3.17;;
65045;SDS011;54657;52.022;5.534;2023-06-24T08:05:23;4.70;;;3.20;;
65045;SDS011;54657;52.022;5.534;2023-06-24T08:07:50;5.05;;;3.33;;
65045;SDS011;54657;52.022;5.534;2023-06-24T08:10:16;4.15;;;3.75;;
65045;SDS011;54657;52.022;5.534;2023-06-24T08:12:42;4.95;;;3.65;;
65045;SDS011;54657;52.022;5.534;2023-06-24T08:15:08;5.90;;;4.10;;
65045;SDS011;54657;52.022;5.534;2023-06-24T08:17:34;4.78;;;4.20;;
65045;SDS011;54657;52.022;5.534;2023-06-24T08:20:00;6.97;;;3.95;;
65045;SDS011;54657;52.022;5.534;2023-06-24T08:22:29;4.35;;;3.90;;
65045;SDS011;54657;52.022;5.534;2023-06-24T08:24:55;6.05;;;3.80;;
65045;SDS011;54657;52.022;5.534;2023-06-24T08:27:21;6.20;;;3.95;;
65045;SDS011;54657;52.022;5.534;2023-06-24T08:29:46;6.15;;;4.32;;
65045;SDS011;54657;52.022;5.534;2023-06-24T08:32:12;3.80;;;3.50;;
65045;SDS011;54657;52.022;5.534;2023-06-24T08:34:37;4.35;;;3.53;;
65045;SDS011;54657;52.022;5.534;2023-06-24T08:37:03;4.15;;;3.45;;
65045;SDS011;54657;52.022;5.534;2023-06-24T08:39:28;4.03;;;3.15;;
65045;SDS011;54657;52.022;5.534;2023-06-24T08:41:54;3.88;;;3.33;;
65045;SDS011;54657;52.022;5.534;2023-06-24T08:44:20;4.07;;;3.47;;
65045;SDS011;54657;52.022;5.534;2023-06-24T08:46:45;3.80;;;3.42;;
65045;SDS011;54657;52.022;5.534;2023-06-24T08:51:46;5.25;;;3.10;;
65045;SDS011;54657;52.022;5.534;2023-06-24T08:54:16;4.75;;;3.15;;
65045;SDS011;54657;52.022;5.534;2023-06-24T08:56:44;4.45;;;3.70;;
65045;SDS011;54657;52.022;5.534;2023-06-24T08:59:10;4.13;;;3.40;;
65045;SDS011;54657;52.022;5.534;2023-06-24T09:01:36;4.35;;;3.55;;
65045;SDS011;54657;52.022;5.534;2023-06-24T09:04:02;3.70;;;3.40;;
65045;SDS011;54657;52.022;5.534;2023-06-24T09:06:28;4.57;;;3.63;;
65045;SDS011;54657;52.022;5.534;2023-06-24T09:08:55;3.35;;;3.05;;
65045;SDS011;54657;52.022;5.534;2023-06-24T09:11:22;4.13;;;3.70;;
65045;SDS011;54657;52.022;5.534;2023-06-24T09:13:58;5.80;;;3.95;;
65045;SDS011;54657;52.022;5.534;2023-06-24T09:16:25;6.10;;;3.67;;
65045;SDS011;54657;52.022;5.534;2023-06-24T09:18:52;4.30;;;3.90;;
65045;SDS011;54657;52.022;5.534;2023-06-24T09:21:25;5.22;;;3.50;;
65045;SDS011;54657;52.022;5.534;2023-06-24T09:23:54;3.97;;;3.58;;
65045;SDS011;54657;52.022;5.534;2023-06-24T09:26:22;4.38;;;3.42;;
65045;SDS011;54657;52.022;5.534;2023-06-24T09:28:49;4.00;;;3.60;;
65045;SDS011;54657;52.022;5.534;2023-06-24T09:31:15;3.78;;;3.33;;
65045;SDS011;54657;52.022;5.534;2023-06-24T09:33:40;4.18;;;3.78;;
65045;SDS011;54657;52.022;5.534;2023-06-24T09:36:06;3.90;;;3.38;;
65045;SDS011;54657;52.022;5.534;2023-06-24T09:38:36;5.60;;;3.67;;
65045;SDS011;54657;52.022;5.534;2023-06-24T09:41:03;4.47;;;3.78;;
65045;SDS011;54657;52.022;5.534;2023-06-24T09:43:30;4.20;;;3.75;;
65045;SDS011;54657;52.022;5.534;2023-06-24T09:45:58;4.75;;;3.90;;
65045;SDS011;54657;52.022;5.534;2023-06-24T09:48:26;4.38;;;3.97;;
65045;SDS011;54657;52.022;5.534;2023-06-24T09:50:51;4.90;;;3.60;;
65045;SDS011;54657;52.022;5.534;2023-06-24T09:53:18;7.65;;;4.65;;
65045;SDS011;54657;52.022;5.534;2023-06-24T09:55:44;5.53;;;3.90;;
65045;SDS011;54657;52.022;5.534;2023-06-24T09:58:12;5.05;;;4.53;;
65045;SDS011;54657;52.022;5.534;2023-06-24T10:00:38;5.28;;;4.78;;
65045;SDS011;54657;52.022;5.534;2023-06-24T10:03:04;6.45;;;4.60;;
65045;SDS011;54657;52.022;5.534;2023-06-24T10:05:30;5.50;;;4.47;;
65045;SDS011;54657;52.022;5.534;2023-06-24T10:07:55;6.50;;;4.65;;
65045;SDS011;54657;52.022;5.534;2023-06-24T10:10:21;5.53;;;4.88;;
65045;SDS011;54657;52.022;5.534;2023-06-24T10:12:46;5.22;;;4.72;;
65045;SDS011;54657;52.022;5.534;2023-06-24T10:15:12;6.97;;;5.20;;
65045;SDS011;54657;52.022;5.534;2023-06-24T10:17:39;7.32;;;5.03;;
65045;SDS011;54657;52.022;5.534;2023-06-24T10:20:05;6.63;;;5.10;;
65045;SDS011;54657;52.022;5.534;2023-06-24T10:22:31;6.63;;;4.72;;
65045;SDS011;54657;52.022;5.534;2023-06-24T10:25:00;5.78;;;5.05;;
65045;SDS011;54657;52.022;5.534;2023-06-24T10:27:30;5.15;;;4.32;;
65045;SDS011;54657;52.022;5.534;2023-06-24T10:30:04;6.70;;;5.03;;
65045;SDS011;54657;52.022;5.534;2023-06-24T10:32:39;5.38;;;4.60;;
65045;SDS011;54657;52.022;5.534;2023-06-24T10:35:07;6.30;;;4.97;;
65045;SDS011;54657;52.022;5.534;2023-06-24T10:38:01;5.82;;;4.55;;
65045;SDS011;54657;52.022;5.534;2023-06-24T10:43:04;6.22;;;5.65;;
65045;SDS011;54657;52.022;5.534;2023-06-24T10:45:55;5.57;;;5.07;;
65045;SDS011;54657;52.022;5.534;2023-06-24T10:48:24;6.13;;;4.85;;
65045;SDS011;54657;52.022;5.534;2023-06-24T10:50:54;8.10;;;4.57;;
65045;SDS011;54657;52.022;5.534;2023-06-24T10:53:25;7.55;;;4.93;;
65045;SDS011;54657;52.022;5.534;2023-06-24T10:59:33;4.45;;;4.03;;
65045;SDS011;54657;52.022;5.534;2023-06-24T11:08:44;5.13;;;4.63;;
65045;SDS011;54657;52.022;5.534;2023-06-24T11:19:38;5.93;;;5.32;;
65045;SDS011;54657;52.022;5.534;2023-06-24T11:22:14;6.57;;;4.30;;
65045;SDS011;54657;52.022;5.534;2023-06-24T11:27:58;9.00;;;4.68;;
65045;SDS011;54657;52.022;5.534;2023-06-24T11:33:42;5.10;;;4.60;;
65045;SDS011;54657;52.022;5.534;2023-06-24T11:36:21;6.47;;;4.63;;
65045;SDS011;54657;52.022;5.534;2023-06-24T11:38:47;4.82;;;4.43;;
65045;SDS011;54657;52.022;5.534;2023-06-24T11:41:15;6.80;;;5.07;;
65045;SDS011;54657;52.022;5.534;2023-06-24T11:43:44;6.13;;;5.53;;
65045;SDS011;54657;52.022;5.534;2023-06-24T11:46:52;4.40;;;4.00;;
65045;SDS011;54657;52.022;5.534;2023-06-24T11:53:03;4.70;;;3.55;;
65045;SDS011;54657;52.022;5.534;2023-06-24T11:55:33;5.07;;;4.20;;
65045;SDS011;54657;52.022;5.534;2023-06-24T12:00:57;5.25;;;4.43;;
65045;SDS011;54657;52.022;5.534;2023-06-24T12:03:43;5.15;;;4.68;;
65045;SDS011;54657;52.022;5.534;2023-06-24T12:09:21;4.65;;;4.20;;
65045;SDS011;54657;52.022;5.534;2023-06-24T12:11:56;5.82;;;5.22;;
65045;SDS011;54657;52.022;5.534;2023-06-24T12:14:31;5.10;;;4.60;;
65045;SDS011;54657;52.022;5.534;2023-06-24T12:16:56;5.00;;;4.57;;
65045;SDS011;54657;52.022;5.534;2023-06-24T12:19:22;5.22;;;4.25;;
65045;SDS011;54657;52.022;5.534;2023-06-24T12:21:47;6.25;;;4.70;;
65045;SDS011;54657;52.022;5.534;2023-06-24T12:24:13;4.78;;;4.35;;
65045;SDS011;54657;52.022;5.534;2023-06-24T12:26:41;4.45;;;4.05;;
65045;SDS011;54657;52.022;5.534;2023-06-24T12:29:06;5.45;;;4.95;;
65045;SDS011;54657;52.022;5.534;2023-06-24T12:31:32;6.22;;;4.50;;
65045;SDS011;54657;52.022;5.534;2023-06-24T12:34:00;5.57;;;4.30;;
65045;SDS011;54657;52.022;5.534;2023-06-24T12:36:26;4.97;;;4.47;;
65045;SDS011;54657;52.022;5.534;2023-06-24T12:38:51;5.78;;;4.43;;
65045;SDS011;54657;52.022;5.534;2023-06-24T12:41:17;8.32;;;4.68;;
65045;SDS011;54657;52.022;5.534;2023-06-24T12:43:43;5.45;;;4.82;;
65045;SDS011;54657;52.022;5.534;2023-06-24T12:46:08;10.95;;;5.05;;
65045;SDS011;54657;52.022;5.534;2023-06-24T12:48:34;6.93;;;4.70;;
65045;SDS011;54657;52.022;5.534;2023-06-24T12:50:59;5.22;;;4.72;;
65045;SDS011;54657;52.022;5.534;2023-06-24T12:53:25;6.60;;;5.25;;
65045;SDS011;54657;52.022;5.534;2023-06-24T12:55:51;4.95;;;4.45;;
65045;SDS011;54657;52.022;5.534;2023-06-24T12:58:21;5.50;;;4.00;;
65045;SDS011;54657;52.022;5.534;2023-06-24T13:00:48;5.75;;;4.43;;
65045;SDS011;54657;52.022;5.534;2023-06-24T13:03:14;6.65;;;4.40;;
65045;SDS011;54657;52.022;5.534;2023-06-24T13:05:40;4.63;;;4.22;;
65045;SDS011;54657;52.022;5.534;2023-06-24T13:08:05;7.88;;;4.13;;
65045;SDS011;54657;52.022;5.534;2023-06-24T13:10:31;5.28;;;4.78;;
65045;SDS011;54657;52.022;5.534;2023-06-24T13:12:57;5.10;;;4.60;;
65045;SDS011;54657;52.022;5.534;2023-06-24T13:15:22;5.15;;;4.30;;
65045;SDS011;54657;52.022;5.534;2023-06-24T13:17:48;6.63;;;4.57;;
65045;SDS011;54657;52.022;5.534;2023-06-24T13:20:15;4.60;;;4.20;;
65045;SDS011;54657;52.022;5.534;2023-06-24T13:22:40;6.50;;;5.28;;
65045;SDS011;54657;52.022;5.534;2023-06-24T13:25:06;7.25;;;4.95;;
65045;SDS011;54657;52.022;5.534;2023-06-24T13:27:32;5.65;;;5.13;;
65045;SDS011;54657;52.022;5.534;2023-06-24T13:29:57;5.28;;;4.78;;
65045;SDS011;54657;52.022;5.534;2023-06-24T13:32:23;6.15;;;4.63;;
65045;SDS011;54657;52.022;5.534;2023-06-24T13:34:49;4.00;;;3.70;;
65045;SDS011;54657;52.022;5.534;2023-06-24T13:37:14;6.93;;;5.80;;
65045;SDS011;54657;52.022;5.534;2023-06-24T13:39:40;5.57;;;4.50;;
65045;SDS011;54657;52.022;5.534;2023-06-24T13:42:06;4.60;;;4.20;;
65045;SDS011;54657;52.022;5.534;2023-06-24T13:50:28;5.47;;;4.80;;
65045;SDS011;54657;52.022;5.534;2023-06-24T13:52:54;5.22;;;4.50;;
65045;SDS011;54657;52.022;5.534;2023-06-24T13:55:20;4.88;;;4.47;;
65045;SDS011;54657;52.022;5.534;2023-06-24T13:57:46;4.60;;;4.20;;
65045;SDS011;54657;52.022;5.534;2023-06-24T14:00:12;4.93;;;4.40;;
65045;SDS011;54657;52.022;5.534;2023-06-24T14:02:38;5.43;;;4.38;;
65045;SDS011;54657;52.022;5.534;2023-06-24T14:05:04;4.38;;;3.97;;
65045;SDS011;54657;52.022;5.534;2023-06-24T14:07:30;4.70;;;4.30;;
65045;SDS011;54657;52.022;5.534;2023-06-24T14:09:56;5.03;;;4.57;;
65045;SDS011;54657;52.022;5.534;2023-06-24T14:12:22;6.35;;;4.80;;
65045;SDS011;54657;52.022;5.534;2023-06-24T14:14:47;4.82;;;4.38;;
65045;SDS011;54657;52.022;5.534;2023-06-24T14:17:13;4.80;;;4.38;;
65045;SDS011;54657;52.022;5.534;2023-06-24T14:19:39;5.65;;;3.95;;
65045;SDS011;54657;52.022;5.534;2023-06-24T14:22:05;4.00;;;3.70;;
65045;SDS011;54657;52.022;5.534;2023-06-24T14:24:32;4.65;;;4.22;;
65045;SDS011;54657;52.022;5.534;2023-06-24T14:26:57;4.57;;;4.07;;
65045;SDS011;54657;52.022;5.534;2023-06-24T14:29:23;4.38;;;3.95;;
65045;SDS011;54657;52.022;5.534;2023-06-24T14:31:50;5.10;;;4.50;;
65045;SDS011;54657;52.022;5.534;2023-06-24T14:34:16;4.60;;;4.20;;
65045;SDS011;54657;52.022;5.534;2023-06-24T14:36:42;6.03;;;4.20;;
65045;SDS011;54657;52.022;5.534;2023-06-24T14:39:07;5.05;;;3.92;;
65045;SDS011;54657;52.022;5.534;2023-06-24T14:41:33;3.78;;;3.53;;
65045;SDS011;54657;52.022;5.534;2023-06-24T14:43:58;4.50;;;4.10;;
65045;SDS011;54657;52.022;5.534;2023-06-24T14:46:24;4.25;;;3.92;;
65045;SDS011;54657;52.022;5.534;2023-06-24T14:48:50;5.22;;;3.65;;
65045;SDS011;54657;52.022;5.534;2023-06-24T14:51:15;4.13;;;3.83;;
65045;SDS011;54657;52.022;5.534;2023-06-24T14:53:41;5.63;;;4.00;;
65045;SDS011;54657;52.022;5.534;2023-06-24T14:56:06;5.63;;;4.07;;
65045;SDS011;54657;52.022;5.534;2023-06-24T14:58:32;5.40;;;4.30;;
65045;SDS011;54657;52.022;5.534;2023-06-24T15:00:57;5.05;;;4.25;;
65045;SDS011;54657;52.022;5.534;2023-06-24T15:03:23;4.53;;;4.13;;
65045;SDS011;54657;52.022;5.534;2023-06-24T15:05:49;5.43;;;4.22;;
65045;SDS011;54657;52.022;5.534;2023-06-24T15:08:14;4.45;;;4.05;;
65045;SDS011;54657;52.022;5.534;2023-06-24T15:10:40;7.72;;;5.80;;
65045;SDS011;54657;52.022;5.534;2023-06-24T15:13:05;4.15;;;3.85;;
65045;SDS011;54657;52.022;5.534;2023-06-24T15:15:31;5.32;;;4.82;;
65045;SDS011;54657;52.022;5.534;2023-06-24T15:17:57;5.60;;;5.10;;
65045;SDS011;54657;52.022;5.534;2023-06-24T15:20:22;5.25;;;4.75;;
65045;SDS011;54657;52.022;5.534;2023-06-24T15:22:48;6.18;;;5.60;;
65045;SDS011;54657;52.022;5.534;2023-06-24T15:25:13;5.28;;;4.57;;
65045;SDS011;54657;52.022;5.534;2023-06-24T15:27:39;4.93;;;4.10;;
65045;SDS011;54657;52.022;5.534;2023-06-24T15:30:05;5.55;;;5.03;;
65045;SDS011;54657;52.022;5.534;2023-06-24T15:32:31;5.53;;;4.50;;
65045;SDS011;54657;52.022;5.534;2023-06-24T15:34:57;4.45;;;4.05;;
65045;SDS011;54657;52.022;5.534;2023-06-24T15:37:22;5.07;;;4.68;;
65045;SDS011;54657;52.022;5.534;2023-06-24T15:39:48;4.88;;;4.47;;
65045;SDS011;54657;52.022;5.534;2023-06-24T15:42:14;4.43;;;4.00;;
65045;SDS011;54657;52.022;5.534;2023-06-24T15:44:39;5.68;;;4.53;;
65045;SDS011;54657;52.022;5.534;2023-06-24T15:47:05;5.00;;;4.30;;
65045;SDS011;54657;52.022;5.534;2023-06-24T15:49:31;4.63;;;4.22;;